Time;durP1;ratioP1;P1;durP2;ratioP2;P2;SDS_P1;SDS_P2;PMS_P1;PMS_P2;Temp;Humidity;BMP_temperature;BMP_pressure;BME280_temperature;BME280_humidity;BME280_pressure;Samples;Min_cycle;Max_cycle;Signal;HPM_P1;HPM_P2
2021/12/23 00:01:44;;;;;;;33.88;17.23;;;-0.70;99.90;;;-0.21;92.23;100672.50;5001620;28;20444;-88
2021/12/23 00:04:12;;;;;;;29.15;17.05;;;-0.80;99.90;;;-0.20;93.75;100667.84;5001220;28;20029;-87
2021/12/23 00:06:40;;;;;;;29.63;16.23;;;-0.90;99.90;;;-0.29;94.23;100656.63;5017745;28;20046;-88
2021/12/23 00:09:06;;;;;;;30.55;16.48;;;-0.90;99.90;;;-0.38;94.92;100660.25;5017212;28;20025;-88
2021/12/23 00:11:33;;;;;;;27.85;14.90;;;-1.00;99.90;;;-0.41;95.77;100658.09;5018064;28;20049;-88
2021/12/23 00:14:05;;;;;;;25.83;15.10;;;-1.00;99.90;;;-0.47;96.02;100656.50;5018030;28;20026;-88
2021/12/23 00:16:45;;;;;;;28.85;16.02;;;-1.10;99.90;;;-0.49;96.80;100662.28;5017531;28;20113;-89
2021/12/23 00:24:41;;;;;;;32.50;17.02;;;-1.20;99.90;;;-0.68;98.03;100622.91;5000478;28;20125;-87
2021/12/23 00:27:09;;;;;;;27.33;16.60;;;-1.20;99.90;;;-0.69;98.51;100626.75;4998818;28;20080;-87
2021/12/23 00:29:35;;;;;;;32.10;19.00;;;-1.30;99.90;;;-0.68;98.63;100631.97;4997931;28;20390;-89
2021/12/23 00:32:05;;;;;;;34.75;18.40;;;-1.30;99.90;;;-0.68;99.86;100611.94;4982216;28;20026;-89
2021/12/23 00:34:32;;;;;;;33.05;18.17;;;-1.20;99.90;;;-0.88;100.00;100599.19;4999339;28;20094;-88
2021/12/23 00:36:59;;;;;;;32.70;17.88;;;-1.30;99.90;;;-0.81;100.00;100591.47;5000614;28;20088;-89
2021/12/23 00:39:26;;;;;;;36.70;16.73;;;-1.30;99.90;;;-0.61;100.00;100601.47;4998070;28;20030;-88
2021/12/23 00:41:54;;;;;;;30.23;16.80;;;-1.20;99.90;;;-0.48;100.00;100583.53;4999183;28;20114;-87
2021/12/23 00:44:21;;;;;;;32.00;17.67;;;-1.20;99.90;;;-0.48;100.00;100589.03;4998797;28;20026;-89
2021/12/23 00:46:46;;;;;;;38.63;17.08;;;-1.10;99.90;;;-0.50;100.00;100574.75;5000750;28;20065;-88
2021/12/23 00:49:12;;;;;;;31.90;16.75;;;-1.10;99.90;;;-0.46;100.00;100571.16;5000465;28;20506;-89
2021/12/23 00:51:38;;;;;;;29.38;15.85;;;-1.10;99.90;;;-0.44;100.00;100559.88;5001716;28;20482;-87
2021/12/23 00:54:05;;;;;;;28.75;15.45;;;-1.00;99.90;;;-0.36;100.00;100559.28;5004657;28;20055;-89
2021/12/23 00:56:37;;;;;;;25.38;14.43;;;-1.00;99.90;;;-0.29;100.00;100563.31;5003174;28;20598;-88
2021/12/23 00:59:08;;;;;;;24.55;14.95;;;-0.90;99.90;;;-0.28;99.89;100553.97;4998635;28;20521;-88
2021/12/23 01:01:35;;;;;;;31.15;16.90;;;-0.90;99.90;;;-0.20;98.69;100558.88;5000032;28;20109;-88
2021/12/23 01:04:01;;;;;;;35.45;19.05;;;-0.90;99.90;;;-0.23;98.51;100548.47;4998459;28;20065;-88
2021/12/23 01:06:27;;;;;;;28.40;16.63;;;-0.90;99.90;;;-0.32;99.32;100533.69;4998293;28;20300;-86
2021/12/23 01:08:53;;;;;;;27.33;15.02;;;-0.90;99.90;;;-0.37;100.00;100520.03;4998975;28;20037;-89
2021/12/23 01:11:19;;;;;;;33.38;16.23;;;-0.90;99.90;;;-0.31;99.99;100526.28;4997791;28;20065;-88
2021/12/23 01:14:03;;;;;;;28.85;15.43;;;-0.90;99.90;;;-0.32;99.30;100503.50;4996796;28;20023;-90
2021/12/23 01:16:49;;;;;;;28.13;15.40;;;-0.90;99.90;;;-0.22;97.37;100495.19;4997220;28;20122;-88
2021/12/23 01:19:18;;;;;;;;;;;-0.80;99.90;;;0.07;89.86;100481.41;4998324;28;20117;-88
2021/12/23 01:21:45;;;;;;;24.33;12.85;;;-0.50;99.90;;;0.26;89.03;100482.28;5004086;28;19963;-87
2021/12/23 01:24:11;;;;;;;21.40;11.57;;;-0.40;99.90;;;0.49;84.23;100494.34;5019476;28;20029;-88
2021/12/23 01:26:39;;;;;;;21.95;11.77;;;-0.10;99.90;;;0.71;84.37;100513.00;5002206;28;20061;-89
2021/12/23 01:29:06;;;;;;;24.08;13.90;;;0.10;99.90;;;0.79;85.45;100510.41;5017734;28;20375;-88
2021/12/23 01:31:36;;;;;;;28.30;13.65;;;0.10;99.90;;;0.73;88.57;100513.53;5017808;28;20037;-90
2021/12/23 01:34:04;;;;;;;30.45;15.73;;;0.10;99.90;;;0.60;90.97;100528.00;5018484;28;20033;-88
2021/12/23 01:36:30;;;;;;;28.63;14.98;;;-0.10;99.90;;;0.34;92.07;100505.53;5002974;28;20049;-87
2021/12/23 01:38:57;;;;;;;26.33;14.13;;;-0.30;99.90;;;0.11;93.37;100482.47;5019987;28;20172;-88
2021/12/23 01:41:28;;;;;;;23.92;14.40;;;-0.40;99.90;;;-0.05;94.59;100484.56;5017032;28;20025;-89
2021/12/23 01:43:54;;;;;;;25.45;13.90;;;-0.60;99.90;;;-0.16;95.38;100472.06;5017889;28;20164;-89
2021/12/23 01:46:22;;;;;;;25.15;14.07;;;-0.60;99.90;;;-0.10;93.32;100457.16;5000790;28;20061;-88
2021/12/23 01:48:50;;;;;;;22.02;12.35;;;-0.60;99.90;;;-0.05;92.29;100450.81;5018178;28;20029;-89
2021/12/23 01:51:16;;;;;;;24.30;12.57;;;-0.50;99.90;;;0.25;87.82;100433.13;5002976;28;20040;-89
2021/12/23 01:53:42;;;;;;;24.40;12.93;;;-0.30;99.90;;;0.58;83.74;100436.81;5003021;28;20049;-89
2021/12/23 01:56:08;;;;;;;20.23;11.75;;;0.00;99.90;;;0.81;82.37;100433.94;5006000;28;20026;-88
2021/12/23 01:58:41;;;;;;;22.75;12.45;;;0.30;99.90;;;0.95;82.07;100426.59;5025783;28;20034;-86
2021/12/23 02:01:11;;;;;;;23.98;12.00;;;0.40;99.90;;;1.01;81.33;100419.06;5027829;28;20030;-87
2021/12/23 02:03:39;;;;;;;22.38;11.60;;;0.40;99.90;;;1.04;80.39;100423.97;5018965;28;20113;-88
2021/12/23 02:06:05;;;;;;;20.42;12.68;;;0.50;99.90;;;1.11;80.08;100424.41;5000449;28;20040;-87
2021/12/23 02:08:34;;;;;;;20.02;11.75;;;0.50;99.90;;;1.14;79.84;100420.22;5022673;28;20104;-86
2021/12/23 02:11:05;;;;;;;22.92;12.30;;;0.60;99.90;;;1.07;79.58;100415.09;5021300;28;20108;-86
2021/12/23 02:13:32;;;;;;;23.02;12.10;;;0.60;99.90;;;1.06;79.29;100407.97;5017708;28;20164;-90
2021/12/23 02:15:58;;;;;;;20.70;12.57;;;0.60;99.90;;;1.12;79.82;100414.22;5019009;28;20427;-86
2021/12/23 02:18:25;;;;;;;22.35;11.98;;;0.50;99.90;;;1.12;79.95;100419.72;5020910;28;20090;-86
2021/12/23 02:20:53;;;;;;;19.58;11.57;;;0.60;99.90;;;1.05;80.51;100426.44;5003534;28;20501;-86
2021/12/23 02:23:20;;;;;;;20.30;11.77;;;0.50;99.90;;;0.96;81.26;100428.19;4986294;28;20038;-86
2021/12/23 02:25:46;;;;;;;22.73;12.05;;;0.40;99.90;;;0.90;82.26;100428.63;5000684;28;20030;-89
2021/12/23 02:28:22;;;;;;;18.98;12.70;;;0.30;99.90;;;0.88;83.26;100439.06;4999852;28;20513;-86
2021/12/23 02:30:51;;;;;;;21.00;11.93;;;0.20;99.90;;;0.75;84.21;100432.41;5002401;28;20121;-88
2021/12/23 02:33:27;;;;;;;24.95;12.13;;;0.10;99.90;;;0.69;84.65;100438.28;5001530;28;20041;-89
2021/12/23 02:35:58;;;;;;;21.15;11.43;;;0.00;99.90;;;0.62;84.47;100433.16;5000590;28;20061;-85
2021/12/23 02:38:25;;;;;;;24.63;13.27;;;0.00;99.90;;;0.47;85.72;100409.47;5000929;28;20039;-87
2021/12/23 02:40:51;;;;;;;24.05;12.30;;;-0.10;99.90;;;0.53;85.94;100419.28;4998616;28;20050;-85
2021/12/23 02:43:23;;;;;;;25.67;13.25;;;-0.10;99.90;;;0.56;87.03;100428.84;4998718;28;20049;-88
2021/12/23 02:45:55;;;;;;;29.38;14.63;;;-0.10;99.90;;;0.48;88.86;100429.53;4999233;28;20034;-87
2021/12/23 02:48:34;;;;;;;28.08;13.93;;;-0.20;99.90;;;0.34;90.50;100421.19;4983467;28;20057;-86
2021/12/23 02:51:11;;;;;;;27.27;14.90;;;-0.20;99.90;;;0.34;91.03;100420.38;5000357;28;20084;-87
2021/12/23 02:53:40;;;;;;;27.88;16.33;;;-0.30;99.90;;;0.32;90.68;100414.38;4999400;28;20027;-87
2021/12/23 02:56:11;;;;;;;23.75;14.30;;;-0.30;99.90;;;0.28;91.19;100407.81;5000701;28;20112;-87
2021/12/23 02:58:38;;;;;;;24.13;13.40;;;-0.40;99.90;;;0.21;91.52;100410.13;4999934;28;20483;-87
2021/12/23 03:01:08;;;;;;;28.33;15.65;;;-0.40;99.90;;;0.26;92.67;100399.88;5000501;28;20512;-88
2021/12/23 03:03:35;;;;;;;24.85;14.43;;;-0.40;99.90;;;0.23;93.20;100394.97;5000268;28;20246;-88
2021/12/23 03:06:02;;;;;;;29.08;14.13;;;-0.40;99.90;;;0.13;93.75;100372.34;5000461;28;20030;-87
2021/12/23 03:08:36;;;;;;;28.63;14.65;;;-0.50;99.90;;;0.03;94.40;100358.75;4999923;28;20033;-89
2021/12/23 03:11:06;;;;;;;21.17;12.95;;;-0.60;99.90;;;0.03;94.80;100356.00;5000477;28;20026;-87
2021/12/23 03:13:34;;;;;;;27.45;14.40;;;-0.60;99.90;;;-0.02;95.29;100346.72;5001108;28;20022;-87
2021/12/23 03:16:01;;;;;;;26.15;15.27;;;-0.60;99.90;;;0.07;95.65;100352.34;4982690;28;20037;-87
2021/12/23 03:18:28;;;;;;;26.95;14.65;;;-0.50;99.90;;;0.09;95.96;100336.41;4999520;28;20045;-87
2021/12/23 03:20:56;;;;;;;52.80;27.48;;;-0.60;99.90;;;0.17;96.01;100341.22;4999927;28;20034;-87
2021/12/23 03:23:22;;;;;;;34.22;17.35;;;-0.50;99.90;;;0.12;96.24;100343.22;5017323;28;20052;-87
2021/12/23 03:25:49;;;;;;;28.33;14.70;;;-0.50;99.90;;;0.10;96.65;100346.25;5019113;28;20058;-86
2021/12/23 03:28:15;;;;;;;29.40;15.63;;;-0.60;99.90;;;0.10;97.03;100349.00;5019035;28;20045;-87
2021/12/23 03:30:43;;;;;;;70.82;32.42;;;-0.50;99.90;;;0.11;97.63;100336.91;5019218;28;20092;-87
2021/12/23 03:33:09;;;;;;;40.05;20.35;;;-0.50;99.90;;;0.13;97.79;100339.38;5020333;28;20050;-87
2021/12/23 03:35:36;;;;;;;32.97;17.50;;;-0.50;99.90;;;0.13;97.80;100344.88;5002854;28;20030;-88
2021/12/23 03:38:04;;;;;;;31.23;16.20;;;-0.50;99.90;;;0.18;97.87;100350.28;5021489;28;20030;-87
2021/12/23 03:40:30;;;;;;;31.65;15.90;;;-0.50;99.90;;;0.17;98.13;100360.44;5003304;28;20030;-87
2021/12/23 03:42:57;;;;;;;31.73;16.13;;;-0.50;99.90;;;0.21;98.32;100353.25;5002967;28;20033;-86
2021/12/23 03:45:23;;;;;;;26.15;14.98;;;-0.50;99.90;;;0.21;98.48;100346.94;5004220;28;20425;-87
2021/12/23 03:47:50;;;;;;;31.27;15.57;;;-0.40;99.90;;;0.16;98.61;100358.81;5020984;28;20136;-87
2021/12/23 03:50:20;;;;;;;26.35;15.23;;;-0.50;99.90;;;0.14;98.96;100355.56;5022528;28;20379;-88
2021/12/23 03:52:47;;;;;;;29.90;16.92;;;-0.50;99.90;;;0.13;99.25;100353.13;5020891;28;20038;-87
2021/12/23 03:55:18;;;;;;;29.23;16.70;;;-0.50;99.90;;;0.18;99.68;100375.81;5002006;28;20030;-88
2021/12/23 03:57:46;;;;;;;31.33;17.23;;;-0.50;99.90;;;0.17;99.02;100367.88;5001710;28;20037;-86
2021/12/23 04:00:19;;;;;;;27.98;16.00;;;-0.50;99.90;;;0.10;99.30;100375.69;5000732;28;20040;-87
2021/12/23 04:02:46;;;;;;;26.50;15.68;;;-0.50;99.90;;;-0.01;99.74;100359.34;5019467;28;20029;-87
2021/12/23 04:05:13;;;;;;;47.47;24.50;;;-0.60;99.90;;;-0.11;100.00;100350.41;5018099;28;20029;-87
2021/12/23 04:07:39;;;;;;;39.53;19.75;;;-0.70;99.90;;;-0.19;100.00;100346.38;5018582;28;20117;-86
2021/12/23 04:10:09;;;;;;;35.63;17.38;;;-0.80;99.90;;;-0.28;100.00;100359.13;5018621;28;20081;-84
2021/12/23 04:12:36;;;;;;;40.72;20.05;;;-0.80;99.90;;;-0.32;100.00;100343.56;5019599;28;20058;-87
2021/12/23 04:15:03;;;;;;;49.65;23.38;;;-0.90;99.90;;;-0.35;100.00;100342.19;5001176;28;20098;-86
2021/12/23 04:17:29;;;;;;;39.60;19.73;;;-0.90;99.90;;;-0.40;100.00;100342.28;5018899;28;20037;-86
2021/12/23 04:20:03;;;;;;;32.72;16.92;;;-1.00;99.90;;;-0.42;100.00;100351.91;5018803;28;20092;-85
2021/12/23 04:22:29;;;;;;;57.75;24.33;;;-1.00;99.90;;;-0.40;100.00;100352.44;4992370;28;20038;-87
2021/12/23 04:24:55;;;;;;;47.13;23.00;;;-1.00;99.90;;;-0.45;100.00;100345.06;5002329;28;20421;-87
2021/12/23 04:27:21;;;;;;;38.13;19.42;;;-1.00;99.90;;;-0.58;100.00;100343.84;5003200;28;20045;-86
2021/12/23 04:29:47;;;;;;;35.00;17.77;;;-1.10;99.90;;;-0.71;100.00;100338.25;4998056;28;20034;-85
2021/12/23 04:32:13;;;;;;;34.90;17.02;;;-1.20;99.90;;;-0.78;100.00;100335.88;4997994;28;20057;-86
2021/12/23 04:34:39;;;;;;;29.73;16.27;;;-1.30;99.90;;;-0.79;100.00;100325.16;4998362;28;20053;-86
2021/12/23 04:37:04;;;;;;;46.75;20.70;;;-1.30;99.90;;;-0.80;100.00;100329.00;4998086;28;20482;-86
2021/12/23 04:39:30;;;;;;;49.53;20.83;;;-1.40;99.90;;;-0.80;100.00;100324.34;4981495;28;20030;-86
2021/12/23 04:41:56;;;;;;;40.65;19.77;;;-1.40;99.90;;;-0.86;100.00;100313.72;4997158;28;20030;-86
2021/12/23 04:44:22;;;;;;;40.90;20.40;;;-1.40;99.90;;;-0.90;100.00;100301.72;4997364;28;20542;-87
2021/12/23 04:46:49;;;;;;;57.10;25.40;;;-1.50;99.90;;;-0.96;100.00;100284.50;4997768;28;20474;-86
2021/12/23 04:49:15;;;;;;;31.52;17.33;;;-1.50;99.90;;;-1.04;100.00;100274.19;4997281;28;20173;-87
2021/12/23 04:51:40;;;;;;;32.33;17.48;;;-1.60;99.90;;;-1.03;100.00;100273.09;4997148;28;20502;-87
2021/12/23 04:54:06;;;;;;;53.45;23.50;;;-1.60;99.90;;;-0.91;100.00;100278.97;4997333;28;20054;-89
2021/12/23 04:56:33;;;;;;;48.95;23.08;;;-1.50;99.90;;;-0.82;100.00;100276.41;4998970;28;20081;-88
2021/12/23 04:58:59;;;;;;;39.92;18.80;;;-1.50;99.90;;;-0.87;100.00;100262.75;4996655;28;20402;-88
2021/12/23 05:01:29;;;;;;;37.85;18.27;;;-1.50;99.90;;;-0.91;100.00;100268.00;4982142;28;20034;-88
2021/12/23 05:03:56;;;;;;;35.75;18.35;;;-1.50;99.90;;;-0.92;100.00;100266.38;4997594;28;20026;-87
2021/12/23 05:06:22;;;;;;;37.25;18.70;;;-1.50;99.90;;;-1.00;100.00;100269.75;4998221;28;20065;-84
2021/12/23 05:08:48;;;;;;;38.08;17.75;;;-1.60;99.90;;;-1.10;100.00;100273.44;4999436;28;20348;-85
2021/12/23 05:11:14;;;;;;;31.75;16.75;;;-1.60;99.90;;;-1.14;100.00;100268.81;4997403;28;20046;-86
2021/12/23 05:13:40;;;;;;;30.60;15.77;;;-1.70;99.90;;;-1.31;100.00;100252.81;4997707;28;20474;-85
2021/12/23 05:16:06;;;;;;;30.38;15.38;;;-1.80;99.90;;;-1.37;100.00;100253.13;4999234;28;20550;-85
2021/12/23 05:18:32;;;;;;;34.67;16.35;;;-1.90;99.90;;;-1.44;100.00;100242.53;4998890;28;20058;-86
2021/12/23 05:20:58;;;;;;;33.40;17.77;;;-1.90;99.90;;;-1.46;100.00;100227.50;4998927;28;20044;-86
2021/12/23 05:23:23;;;;;;;40.42;18.30;;;-1.90;99.90;;;-1.34;100.00;100217.78;4998702;28;20058;-86
2021/12/23 05:25:50;;;;;;;34.25;17.98;;;-1.80;99.90;;;-1.09;100.00;100212.00;5001824;28;20066;-87
2021/12/23 05:28:17;;;;;;;29.52;16.70;;;-1.60;99.90;;;-0.92;100.00;100199.75;5003915;28;20034;-88
2021/12/23 05:30:43;;;;;;;34.05;17.02;;;-1.50;99.90;;;-0.73;100.00;100201.41;5000283;28;20038;-87
2021/12/23 05:33:09;;;;;;;32.95;18.15;;;-1.30;99.90;;;-0.60;100.00;100194.38;4995172;28;20402;-87
2021/12/23 05:35:35;;;;;;;32.92;18.42;;;-1.20;99.90;;;-0.49;100.00;100195.06;4996339;28;20031;-89
2021/12/23 05:38:01;;;;;;;33.72;16.92;;;-1.10;99.90;;;-0.32;100.00;100198.13;4996378;28;20053;-88
2021/12/23 05:40:29;;;;;;;30.13;16.55;;;-1.00;99.90;;;-0.28;99.89;100178.00;4996832;28;20044;-88
2021/12/23 05:42:57;;;;;;;32.17;16.48;;;-1.00;99.90;;;-0.34;99.87;100184.69;4980960;28;20038;-87
2021/12/23 05:45:24;;;;;;;33.25;16.00;;;-1.00;99.90;;;-0.35;99.88;100185.78;4999996;28;20035;-86
2021/12/23 05:47:51;;;;;;;33.70;17.27;;;-1.00;99.90;;;-0.34;100.00;100167.41;5004243;28;20046;-87
2021/12/23 05:50:23;;;;;;;34.80;18.40;;;-0.90;99.90;;;-0.28;100.00;100153.31;5002883;28;20022;-86
2021/12/23 05:52:51;;;;;;;38.30;18.38;;;-0.90;99.90;;;-0.18;99.92;100146.84;4984845;28;20522;-86
2021/12/23 05:55:20;;;;;;;34.75;17.63;;;-0.80;99.90;;;-0.11;99.79;100139.88;5001485;28;20106;-87
2021/12/23 05:57:47;;;;;;;30.75;16.70;;;-0.70;99.90;;;0.10;98.44;100148.56;5001540;28;20379;-88
2021/12/23 06:00:23;;;;;;;31.17;16.95;;;-0.50;99.90;;;0.34;96.97;100151.16;5000776;28;20037;-86
2021/12/23 06:02:50;;;;;;;32.28;16.38;;;-0.20;99.90;;;0.46;96.14;100152.31;5000432;28;20026;-86
2021/12/23 06:05:17;;;;;;;33.35;16.63;;;-0.10;99.90;;;0.58;95.15;100156.50;5001629;28;20042;-87
2021/12/23 06:07:44;;;;;;;27.92;16.13;;;0.10;99.90;;;0.70;93.94;100163.13;5000166;28;20030;-87
2021/12/23 06:10:13;;;;;;;35.17;17.95;;;0.10;99.90;;;0.78;93.09;100161.56;5002039;28;20077;-86
2021/12/23 06:12:41;;;;;;;24.98;14.75;;;0.30;99.90;;;0.93;92.12;100156.59;4999976;28;20061;-88
2021/12/23 06:15:10;;;;;;;31.17;16.60;;;0.40;99.90;;;0.99;91.89;100174.63;4999881;28;20022;-87
2021/12/23 06:17:37;;;;;;;30.95;16.27;;;0.40;99.90;;;1.05;91.63;100180.84;4999916;28;20057;-88
2021/12/23 06:20:07;;;;;;;34.25;17.60;;;0.40;99.90;;;1.08;91.42;100191.22;5000888;28;20038;-86
2021/12/23 06:22:35;;;;;;;30.30;18.02;;;0.40;99.90;;;0.98;91.61;100199.69;5010966;28;20374;-86
2021/12/23 06:25:09;;;;;;;31.75;16.60;;;0.30;99.90;;;0.86;92.30;100202.94;5020479;28;20036;-87
2021/12/23 06:27:37;;;;;;;26.27;15.85;;;0.30;99.90;;;0.83;92.58;100191.75;5020787;28;20049;-87
2021/12/23 06:30:19;;;;;;;32.45;17.60;;;0.20;99.90;;;0.76;92.36;100180.31;5020440;28;20119;-88
2021/12/23 06:32:50;;;;;;;29.25;15.80;;;0.20;99.90;;;0.76;92.84;100181.16;5022426;28;20034;-85
2021/12/23 06:35:22;;;;;;;30.45;17.02;;;0.10;99.90;;;0.83;92.57;100183.50;5004725;28;20026;-89
2021/12/23 06:37:50;;;;;;;30.38;16.55;;;0.10;99.90;;;0.84;92.42;100172.16;5006335;28;20049;-87
2021/12/23 06:40:16;;;;;;;31.30;16.42;;;0.20;99.90;;;0.88;91.68;100175.13;5028364;28;20076;-87
2021/12/23 06:42:44;;;;;;;33.22;17.08;;;0.20;99.90;;;0.97;91.33;100162.28;5029105;28;20084;-87
2021/12/23 06:45:14;;;;;;;32.67;16.40;;;0.30;99.90;;;1.08;90.06;100147.22;5020608;28;20034;-87
2021/12/23 06:47:42;;;;;;;30.88;16.00;;;0.40;99.90;;;1.17;89.91;100147.31;5027804;28;20113;-89
2021/12/23 06:50:11;;;;;;;31.65;16.63;;;0.50;99.90;;;1.20;89.34;100147.50;5029072;28;20022;-86
2021/12/23 06:52:39;;;;;;;33.47;16.58;;;0.50;99.90;;;1.20;88.76;100131.00;5007313;28;20034;-88
2021/12/23 06:55:10;;;;;;;35.83;17.38;;;0.60;99.90;;;1.25;87.77;100128.16;5000964;28;20482;-85
2021/12/23 06:57:36;;;;;;;30.40;15.65;;;0.70;99.90;;;1.32;87.24;100131.28;5018438;28;20105;-86
2021/12/23 07:00:10;;;;;;;29.08;16.17;;;0.80;99.90;;;1.46;87.20;100129.31;5018809;28;20604;-86
2021/12/23 07:02:39;;;;;;;28.92;16.00;;;0.90;99.90;;;1.45;87.14;100124.09;4998679;28;20034;-86
2021/12/23 07:05:07;;;;;;;26.70;15.38;;;0.90;99.90;;;1.47;86.48;100130.94;5001233;28;20540;-87
2021/12/23 07:07:42;;;;;;;28.08;15.77;;;0.80;99.90;;;1.51;86.38;100142.13;5016874;28;20034;-86
2021/12/23 07:10:10;;;;;;;32.90;16.77;;;0.90;99.90;;;1.55;86.07;100154.16;5018910;28;20041;-86
2021/12/23 07:12:36;;;;;;;28.58;15.38;;;0.90;99.90;;;1.57;85.97;100154.66;5002345;28;20030;-86
2021/12/23 07:15:04;;;;;;;31.02;15.73;;;0.90;99.90;;;1.52;86.29;100147.31;5002412;28;20030;-87
2021/12/23 07:17:30;;;;;;;37.38;17.35;;;0.80;99.90;;;1.45;86.82;100144.19;5019575;28;20030;-86
2021/12/23 07:19:57;;;;;;;28.48;15.75;;;0.80;99.90;;;1.42;87.52;100147.56;5020546;28;20034;-86
2021/12/23 07:22:23;;;;;;;33.42;16.98;;;0.80;99.90;;;1.38;87.66;100132.00;5002187;28;20029;-87
2021/12/23 07:24:49;;;;;;;32.22;16.90;;;0.70;99.90;;;1.26;88.03;100134.44;5018058;28;20048;-87
2021/12/23 07:27:14;;;;;;;30.27;15.60;;;0.60;99.90;;;1.18;88.36;100138.75;5018894;28;20418;-86
2021/12/23 07:29:40;;;;;;;26.27;14.77;;;0.50;99.90;;;1.13;88.68;100141.59;5017899;28;20103;-87
2021/12/23 07:32:07;;;;;;;31.13;16.38;;;0.50;99.90;;;1.10;89.08;100147.72;5001746;28;20065;-86
2021/12/23 07:34:33;;;;;;;32.70;16.23;;;0.40;99.90;;;1.09;89.18;100164.53;5020197;28;20030;-88
2021/12/23 07:37:00;;;;;;;36.33;18.13;;;0.40;99.90;;;1.08;89.62;100163.72;5002594;28;20026;-88
2021/12/23 07:39:26;;;;;;;32.13;17.35;;;0.40;99.90;;;1.03;89.75;100170.13;5019123;28;20093;-88
2021/12/23 07:41:51;;;;;;;32.15;17.13;;;0.40;99.90;;;1.03;90.04;100164.63;5001368;28;20105;-87
2021/12/23 07:44:20;;;;;;;34.60;17.10;;;0.30;99.90;;;1.02;90.16;100156.69;5017553;28;20561;-89
2021/12/23 07:46:50;;;;;;;33.25;16.45;;;0.40;99.90;;;1.08;89.85;100157.41;4999706;28;20025;-87
2021/12/23 07:49:17;;;;;;;30.40;16.15;;;0.50;99.90;;;1.25;88.87;100165.84;4999779;28;20034;-90
2021/12/23 07:51:44;;;;;;;32.58;16.58;;;0.50;99.90;;;1.38;87.70;100174.06;4999122;28;20045;-88
2021/12/23 07:54:10;;;;;;;32.60;17.38;;;0.60;99.90;;;1.38;87.17;100174.06;5017674;28;20577;-90
2021/12/23 07:56:36;;;;;;;29.88;15.55;;;0.60;99.90;;;1.29;87.73;100172.34;5016089;28;20069;-87
2021/12/23 07:59:03;;;;;;;31.33;16.73;;;0.60;99.90;;;1.30;88.27;100187.72;5017308;28;20042;-87
2021/12/23 08:01:29;;;;;;;34.65;18.17;;;0.60;99.90;;;1.30;88.53;100183.06;5030301;28;20069;-85
2021/12/23 08:03:54;;;;;;;37.85;19.42;;;0.60;99.90;;;1.25;89.45;100183.16;5019997;28;20028;-85
2021/12/23 08:06:20;;;;;;;51.90;22.98;;;0.50;99.90;;;1.17;89.88;100177.56;5019156;28;20030;-86
2021/12/23 08:08:46;;;;;;;78.97;32.60;;;0.50;99.90;;;1.03;90.83;100174.81;5037266;28;20042;-83
2021/12/23 08:11:12;;;;;;;70.45;31.42;;;0.40;99.90;;;0.93;91.80;100167.59;5037863;28;20056;-85
2021/12/23 08:13:38;;;;;;;53.70;22.70;;;0.30;99.90;;;0.93;91.84;100158.53;5037424;28;20025;-84
2021/12/23 08:16:04;;;;;;;38.85;20.38;;;0.30;99.90;;;1.03;91.09;100161.06;5037621;28;20026;-83
2021/12/23 08:18:32;;;;;;;33.20;16.95;;;0.40;99.90;;;1.21;90.47;100157.41;5037726;28;20068;-83
2021/12/23 08:21:01;;;;;;;31.70;17.23;;;0.50;99.90;;;1.33;88.79;100156.84;5036985;28;20026;-83
2021/12/23 08:23:28;;;;;;;33.25;17.23;;;0.70;99.90;;;1.47;88.65;100152.13;5036971;28;20045;-83
2021/12/23 08:25:56;;;;;;;30.55;17.23;;;0.80;99.90;;;1.57;88.05;100155.44;5037642;28;20088;-85
2021/12/23 08:28:22;;;;;;;35.70;16.92;;;0.90;99.90;;;1.59;87.12;100144.97;5036686;28;20022;-85
2021/12/23 08:30:48;;;;;;;33.00;17.48;;;1.00;99.90;;;1.61;86.35;100130.88;5037808;28;20053;-84
2021/12/23 08:33:14;;;;;;;33.65;16.85;;;1.00;99.90;;;1.72;85.51;100128.72;5036778;28;20026;-85
2021/12/23 08:35:40;;;;;;;30.88;16.88;;;1.10;99.90;;;1.78;84.71;100125.50;5016612;28;20038;-87
2021/12/23 08:38:06;;;;;;;32.88;17.50;;;1.20;99.90;;;1.85;85.02;100123.16;5019180;28;20657;-85
2021/12/23 08:40:34;;;;;;;35.38;17.20;;;1.30;99.90;;;1.97;84.42;100112.38;5022653;28;20060;-87
2021/12/23 08:43:02;;;;;;;33.05;17.35;;;1.30;99.90;;;2.04;84.36;100107.25;5000223;28;20457;-86
2021/12/23 08:45:32;;;;;;;27.95;16.65;;;1.40;99.90;;;2.03;84.35;100111.09;5000501;28;20541;-86
2021/12/23 08:47:58;;;;;;;34.65;16.55;;;1.40;99.90;;;2.07;83.88;100119.56;4999766;28;20034;-87
2021/12/23 08:50:29;;;;;;;34.40;17.52;;;1.40;99.90;;;2.07;83.87;100114.06;5024525;28;20034;-85
2021/12/23 08:52:56;;;;;;;28.23;16.20;;;1.40;99.90;;;2.12;83.56;100117.47;5011025;28;20030;-84
2021/12/23 08:55:27;;;;;;;30.77;17.35;;;1.50;99.90;;;2.17;83.10;100133.06;5025704;28;20029;-86
2021/12/23 08:57:56;;;;;;;32.08;16.50;;;1.50;99.90;;;2.26;82.82;100133.94;5016460;28;20026;-87
2021/12/23 09:00:23;;;;;;;32.55;18.17;;;1.50;99.90;;;2.35;82.97;100142.25;4998298;28;20409;-86
2021/12/23 09:02:50;;;;;;;31.58;18.70;;;1.60;99.90;;;2.39;82.78;100148.75;5016062;28;20026;-86
2021/12/23 09:05:19;;;;;;;31.08;15.80;;;1.60;99.90;;;2.43;82.74;100144.25;4997550;28;20029;-87
2021/12/23 09:07:46;;;;;;;28.42;16.13;;;1.60;99.90;;;2.34;82.92;100135.94;5015482;28;20133;-87
2021/12/23 09:10:13;;;;;;;27.77;15.25;;;1.60;99.90;;;2.33;83.29;100139.81;5016240;28;20045;-85
2021/12/23 09:12:39;;;;;;;29.67;16.45;;;1.60;99.90;;;2.33;83.32;100133.50;4998456;28;20032;-85
2021/12/23 09:15:07;;;;;;;32.10;15.93;;;1.60;99.90;;;2.35;82.68;100132.03;5016379;28;20022;-86
2021/12/23 09:17:34;;;;;;;31.13;16.58;;;1.60;99.90;;;2.42;82.45;100126.06;5016488;28;20454;-85
2021/12/23 09:20:01;;;;;;;31.10;16.23;;;1.70;99.90;;;2.51;82.32;100132.44;4998398;28;20057;-86
2021/12/23 09:22:27;;;;;;;31.70;15.45;;;1.70;99.90;;;2.60;81.31;100131.34;5006588;28;20037;-90
2021/12/23 09:24:57;;;;;;;26.38;15.90;;;1.80;99.90;;;2.62;81.27;100125.53;4998886;28;20026;-87
2021/12/23 09:27:33;;;;;;;30.77;16.67;;;1.80;99.90;;;2.64;80.81;100128.78;4996377;28;20423;-88
2021/12/23 09:32:53;;;;;;;28.27;14.77;;;1.90;99.90;;;2.77;80.13;100125.09;4996771;28;20042;-86
2021/12/23 09:35:25;;;;;;;29.75;15.98;;;1.90;99.90;;;2.83;79.11;100123.00;4994712;28;20463;-87
2021/12/23 09:37:53;;;;;;;28.17;15.13;;;2.10;99.90;;;2.90;77.84;100117.84;4994830;28;20034;-89
2021/12/23 09:40:23;;;;;;;30.58;15.70;;;2.10;99.90;;;2.92;78.42;100104.56;4993689;28;20049;-89
2021/12/23 09:42:51;;;;;;;31.15;15.65;;;2.20;99.90;;;3.01;77.95;100106.19;4995312;28;20034;-85
2021/12/23 09:45:19;;;;;;;28.08;15.95;;;2.30;99.90;;;3.03;77.65;100090.13;4995973;28;20046;-87
2021/12/23 09:47:49;;;;;;;30.40;15.85;;;2.40;99.90;;;3.05;77.58;100085.09;4994931;28;20030;-88
2021/12/23 09:50:23;;;;;;;27.98;15.38;;;2.40;99.90;;;3.20;76.88;100086.59;4997436;28;20045;-86
2021/12/23 09:52:54;;;;;;;26.88;14.55;;;2.50;99.90;;;3.39;75.88;100095.38;4996733;28;20036;-88
2021/12/23 09:55:27;;;;;;;31.30;14.90;;;2.50;99.90;;;3.47;75.81;100088.22;4997435;28;20030;-87
2021/12/23 09:57:57;;;;;;;30.13;15.18;;;2.60;99.90;;;3.52;75.35;100085.31;4979868;28;20398;-87
2021/12/23 10:00:31;;;;;;;26.45;15.90;;;2.70;99.90;;;3.56;75.51;100076.03;4999224;28;20058;-86
2021/12/23 10:02:59;;;;;;;25.00;13.73;;;2.70;99.90;;;3.58;74.62;100071.00;4997834;28;20026;-85
2021/12/23 10:05:32;;;;;;;26.25;14.88;;;2.90;99.90;;;3.67;75.29;100059.94;4997225;28;20027;-86
2021/12/23 10:07:58;;;;;;;27.95;15.13;;;2.90;99.90;;;3.60;74.60;100054.09;4996832;28;20041;-88
2021/12/23 10:11:21;;;;;;;24.27;13.80;;;3.00;99.90;;;3.72;74.31;100054.28;4998056;28;20307;-87
2021/12/23 10:30:18;;;;;;;24.23;13.13;;;3.40;99.90;;;4.14;73.67;100006.38;5018325;28;20307;-88
2021/12/23 10:38:31;;;;;;;25.13;13.27;;;3.50;99.90;;;4.39;72.72;100009.38;5021678;28;20036;-86
2021/12/23 10:41:17;;;;;;;22.33;12.93;;;3.60;99.90;;;4.43;73.12;100000.06;5002789;28;20044;-87